Airfield :
LOGIN :

Register | Disclaimer

   EN    FR    IT 

 










Legend :    VFR   Marginal VFR   IFR   Intensive IFR   Very Intensive IFR
Visi :
Ceiling :
>= 8 km
>= 3000ft
5 to 8 km
1000 to 3000 ft
1500m to 5 km
500 to 1000 ft
800 to 1500m
200 to 500 ft
< 800m
< 200 ft
Symbols :   Thunderstorms  Fog  Heavy snow  Heavy precipitations  Wind > 20 kt
SIGMETs :     Misc.  Thunderstorms  Icing  Turbulence  Mountain Waves  Volcanic Ashes






- Airport Elevation : 1416 ft
- IATA code : ZRH


LSZH - Zurich

CURRENT METAR :
  • 182320Z AUTO 35002KT CAVOK 18/16 Q1021 NOSIG

EXPIRED METARs :
  • 182250Z AUTO 34002KT CAVOK 18/16 Q1021 NOSIG
  • 182220Z AUTO VRB01KT CAVOK 18/16 Q1021 NOSIG
  • 182150Z AUTO 03002KT CAVOK 19/16 Q1021 NOSIG
  • 182120Z 33002KT CAVOK 19/17 Q1021 NOSIG
  • 182050Z VRB03KT CAVOK 20/17 Q1021 NOSIG
  • 182020Z VRB02KT CAVOK 21/17 Q1021 NOSIG
  • 181950Z 31003KT CAVOK 21/17 Q1021 NOSIG
  • 181920Z 02004KT CAVOK 23/17 Q1021 NOSIG
  • 181850Z 01003KT CAVOK 26/16 Q1020 NOSIG

TAF TAF LSZH
Valid from the 18 at 21:00 until the 20 at 03:00 UTC


182025Z 1821/2003 VRB02KT CAVOK TX31/1915Z TN15/1904Z
PROB30 1903/1906 6000 MIFG NSC
BECMG 1907/1910 9999 FEW050
TEMPO 1914/1923 SCT060TCU
PROB30
TEMPO 1916/1923 01010KT TSRA SCT050CB
BECMG 1923/2002 CAVOK
ATIS : +41 43 816 2295 (DEP) +41 43 816 2294 (ARR)



MET'MAP, your aeronautical weather chart ! - Copyright ORBIFLY December 2007 - Disclaimer

ORBIFLY MET'MAP TEAM :

Programming & Development : Alexandra Zaïnal
Original concept : Baudouin d'Aumeries
Technical & hardware support : Manuel Goepfert
Assistance : Marc-Olivier Méhu




SOURCES & CREDITS :

   NOAA